createdAt,value
2016-11-28T00:00:15.375Z,91.2
2016-11-28T00:01:15.391Z,91.2
2016-11-28T00:02:15.405Z,90.91
2016-11-28T00:03:15.416Z,91.1
2016-11-28T00:04:15.431Z,91.2
2016-11-28T00:05:15.446Z,91.1
2016-11-28T00:06:15.465Z,91.01
2016-11-28T00:07:15.510Z,91.01
2016-11-28T00:08:15.497Z,91.01
2016-11-28T00:09:15.506Z,90.82
2016-11-28T00:11:15.538Z,90.63
2016-11-28T00:12:15.559Z,90.63
2016-11-28T00:13:15.571Z,90.44
2016-11-28T00:14:15.588Z,90.72
2016-11-28T00:15:15.605Z,90.63
2016-11-28T00:16:15.616Z,90.53
2016-11-28T00:17:15.639Z,90.53
2016-11-28T00:18:15.649Z,90.72
2016-11-28T00:19:15.666Z,90.53
2016-11-28T00:20:15.680Z,90.34
2016-11-28T00:21:16.006Z,90.16
2016-11-28T00:22:15.708Z,90.53
2016-11-28T00:23:15.724Z,90.06
2016-11-28T00:24:15.742Z,90.25
2016-11-28T00:25:15.754Z,90.82
2016-11-28T00:26:15.768Z,90.25
2016-11-28T00:27:30.758Z,89.87
2016-11-28T00:28:15.801Z,90.25
2016-11-28T00:29:15.820Z,90.34
2016-11-28T00:30:15.832Z,90.06
2016-11-28T00:31:15.845Z,89.78
2016-11-28T00:32:15.859Z,89.97
2016-11-28T00:33:15.879Z,89.87
2016-11-28T00:34:15.888Z,90.06
2016-11-28T00:35:15.919Z,90.34
2016-11-28T00:36:15.923Z,90.06
2016-11-28T00:37:15.935Z,90.25
2016-11-28T00:38:15.954Z,90.25
2016-11-28T00:39:15.968Z,89.97
2016-11-28T00:40:15.984Z,90.06
2016-11-28T00:41:15.997Z,89.5
2016-11-28T00:42:16.019Z,89.59
2016-11-28T00:43:30.952Z,89.59
2016-11-28T00:46:16.074Z,90.25
2016-11-28T00:47:16.094Z,89.97
2016-11-28T00:48:16.101Z,90.06
2016-11-28T00:49:16.120Z,90.06
2016-11-28T00:50:16.135Z,90.06
2016-11-28T00:51:16.152Z,90.34
2016-11-28T00:52:16.170Z,91.1
2016-11-28T00:53:16.181Z,90.25
2016-11-28T00:54:16.199Z,90.53
2016-11-28T00:55:16.212Z,90.16
2016-11-28T00:56:16.227Z,90.16
2016-11-28T00:57:16.239Z,91.01
2016-11-28T00:58:16.406Z,90.91
2016-11-28T00:59:31.193Z,90.72
2016-11-28T01:00:16.286Z,91.2
2016-11-28T01:01:16.301Z,91.01
2016-11-28T01:02:16.317Z,90.63
2016-11-28T01:03:16.329Z,90.82
2016-11-28T01:04:16.349Z,90.44
2016-11-28T01:05:16.360Z,90.06
2016-11-28T01:06:16.375Z,90.25
2016-11-28T01:07:16.441Z,89.59
2016-11-28T01:08:16.408Z,89.21
2016-11-28T01:09:16.422Z,89.59
2016-11-28T01:10:16.434Z,89.5
2016-11-28T01:11:16.448Z,90.06
2016-11-28T01:12:16.468Z,89.5
2016-11-28T01:13:16.482Z,89.21
2016-11-28T01:14:16.494Z,89.5
2016-11-28T01:15:31.433Z,89.02
2016-11-28T01:16:16.524Z,89.21
2016-11-28T01:17:16.537Z,89.69
2016-11-28T01:18:16.554Z,89.31
2016-11-28T01:19:16.567Z,89.21
2016-11-28T01:20:16.590Z,89.31
2016-11-28T01:21:16.601Z,89.02
2016-11-28T01:22:16.614Z,89.12
2016-11-28T01:23:16.628Z,89.12
2016-11-28T01:24:16.644Z,89.31
2016-11-28T01:25:16.963Z,89.12
2016-11-28T01:26:16.678Z,88.93
2016-11-28T01:27:16.686Z,89.31
2016-11-28T01:28:16.702Z,89.12
2016-11-28T01:30:31.656Z,89.02
2016-11-28T01:32:16.765Z,89.02
2016-11-28T01:34:16.796Z,89.02
2016-11-28T01:35:16.808Z,89.21
2016-11-28T01:36:16.824Z,89.21
2016-11-28T01:37:16.837Z,89.31
2016-11-28T01:38:16.851Z,89.31
2016-11-28T01:39:16.871Z,89.21
2016-11-28T01:40:16.883Z,89.21
2016-11-28T01:41:16.898Z,88.93
2016-11-28T01:42:16.913Z,88.74
2016-11-28T01:43:16.929Z,88.74
2016-11-28T01:44:16.949Z,88.74
2016-11-28T01:45:16.963Z,88.93
2016-11-28T01:46:16.976Z,88.74
2016-11-28T01:47:16.987Z,89.21
2016-11-28T01:48:17.003Z,88.93
2016-11-28T01:49:17.022Z,89.4
2016-11-28T01:50:17.035Z,89.02
2016-11-28T01:51:17.050Z,88.74
2016-11-28T01:52:17.062Z,88.74
2016-11-28T01:53:17.106Z,89.21
2016-11-28T01:54:17.091Z,88.83
2016-11-28T01:55:17.102Z,89.02
2016-11-28T01:56:17.119Z,88.64
2016-11-28T01:57:17.134Z,88.45
2016-11-28T01:58:17.150Z,88.26
2016-11-28T01:59:17.164Z,88.36
2016-11-28T02:00:17.183Z,88.17
2016-11-28T02:02:32.133Z,88.83
2016-11-28T02:03:17.227Z,88.83
2016-11-28T02:04:17.239Z,88.83
2016-11-28T02:06:17.268Z,88.98
2016-11-28T02:07:17.284Z,88.93
2016-11-28T02:08:17.296Z,88.64
2016-11-28T02:09:17.315Z,88.17
2016-11-28T02:10:17.332Z,88.26
2016-11-28T02:11:17.343Z,88.93
2016-11-28T02:12:17.359Z,87.98
2016-11-28T02:13:17.377Z,88.17
2016-11-28T02:14:17.386Z,88.64
2016-11-28T02:15:17.400Z,88.93
2016-11-28T02:16:17.421Z,88.26
2016-11-28T02:17:17.429Z,87.98
2016-11-28T02:18:32.371Z,87.98
2016-11-28T02:19:17.460Z,88.07
2016-11-28T02:20:17.507Z,87.79
2016-11-28T02:21:17.496Z,87.88
2016-11-28T02:22:17.503Z,87.7
2016-11-28T02:23:17.519Z,88.26
2016-11-28T02:24:17.536Z,87.98
2016-11-28T02:25:17.555Z,87.88
2016-11-28T02:26:17.569Z,88.07
2016-11-28T02:27:17.580Z,87.88
2016-11-28T02:28:17.595Z,87.6
2016-11-28T02:29:17.607Z,87.6
2016-11-28T02:30:17.625Z,87.32
2016-11-28T02:31:17.640Z,87.41
2016-11-28T02:33:17.668Z,87.13
2016-11-28T02:34:32.606Z,88.22
2016-11-28T02:35:17.701Z,87.74
2016-11-28T02:36:17.714Z,87.98
2016-11-28T02:37:17.727Z,87.32
2016-11-28T02:38:17.743Z,87.13
2016-11-28T02:39:17.757Z,87.23
2016-11-28T02:40:17.779Z,87.6
2016-11-28T02:41:17.791Z,87.88
2016-11-28T02:42:17.798Z,87.98
2016-11-28T02:43:17.816Z,87.32
2016-11-28T02:44:17.830Z,87.6
2016-11-28T02:45:17.842Z,86.75
2016-11-28T02:46:17.861Z,87.23
2016-11-28T02:47:17.875Z,87.32
2016-11-28T02:48:17.890Z,87.13
2016-11-28T02:49:17.906Z,86.47
2016-11-28T02:50:32.840Z,86.75
2016-11-28T02:51:17.937Z,87.32
2016-11-28T02:53:17.961Z,86.94
2016-11-28T02:54:17.985Z,87.04
2016-11-28T02:55:17.991Z,86.94
2016-11-28T02:56:18.004Z,86.75
2016-11-28T02:57:18.023Z,86.61
2016-11-28T02:58:18.039Z,87.27
2016-11-28T02:59:18.055Z,87.65
2016-11-28T03:00:18.071Z,87.84
2016-11-28T03:01:18.080Z,87.46
2016-11-28T03:02:18.096Z,87.55
2016-11-28T03:03:18.114Z,87.55
2016-11-28T03:04:18.129Z,87.88
2016-11-28T03:05:33.063Z,87.51
2016-11-28T03:06:18.162Z,87.27
2016-11-28T03:07:18.174Z,87.27
2016-11-28T03:08:18.189Z,87.32
2016-11-28T03:09:18.199Z,87.41
2016-11-28T03:10:18.217Z,87.27
2016-11-28T03:11:18.226Z,87.37
2016-11-28T03:12:18.541Z,87.27
2016-11-28T03:13:18.261Z,87.18
2016-11-28T03:14:18.284Z,87.18
2016-11-28T03:15:18.287Z,87.55
2016-11-28T03:16:18.354Z,87.84
2016-11-28T03:17:18.370Z,88.12
2016-11-28T03:18:18.330Z,88.31
2016-11-28T03:19:18.342Z,87.93
2016-11-28T03:20:18.362Z,88.22
2016-11-28T03:21:18.372Z,88.22
2016-11-28T03:22:18.396Z,87.74
2016-11-28T03:24:18.424Z,87.84
2016-11-28T03:25:18.433Z,87.74
2016-11-28T03:26:18.447Z,88.12
2016-11-28T03:27:18.463Z,87.74
2016-11-28T03:28:18.479Z,87.93
2016-11-28T03:29:18.491Z,87.84
2016-11-28T03:30:18.504Z,88.03
2016-11-28T03:31:18.521Z,87.93
2016-11-28T03:32:18.533Z,88.12
2016-11-28T03:33:18.602Z,87.65
2016-11-28T03:34:18.562Z,87.84
2016-11-28T03:35:18.584Z,88.31
2016-11-28T03:36:18.598Z,87.55
2016-11-28T03:37:33.532Z,88.12
2016-11-28T03:38:18.629Z,87.74
2016-11-28T03:39:18.637Z,87.74
2016-11-28T03:40:18.653Z,87.84
2016-11-28T03:41:18.668Z,88.03
2016-11-28T03:42:18.678Z,87.46
2016-11-28T03:43:18.696Z,87.65
2016-11-28T03:44:18.714Z,87.55
2016-11-28T03:45:18.728Z,87.93
2016-11-28T03:46:18.743Z,87.18
2016-11-28T03:47:18.754Z,87.55
2016-11-28T03:48:18.774Z,87.08
2016-11-28T03:49:18.783Z,87.27
2016-11-28T03:50:18.802Z,87.18
2016-11-28T03:52:18.832Z,86.61
2016-11-28T03:53:33.766Z,86.52
2016-11-28T03:54:18.856Z,87.08
2016-11-28T03:56:18.884Z,87.46
2016-11-28T03:57:18.904Z,86.61
2016-11-28T03:58:18.917Z,86.61
2016-11-28T03:59:18.927Z,86.61
2016-11-28T04:00:18.942Z,86.9
2016-11-28T04:01:18.959Z,86.8
2016-11-28T04:02:18.970Z,86.14
2016-11-28T04:03:18.985Z,86.23
2016-11-28T04:04:19.002Z,86.71
2016-11-28T04:05:19.018Z,86.8
2016-11-28T04:06:19.031Z,86.71
2016-11-28T04:08:19.061Z,86.52
2016-11-28T04:09:33.996Z,86.9
2016-11-28T04:10:19.086Z,86.8
2016-11-28T04:11:19.105Z,86.8
2016-11-28T04:12:19.118Z,86.99
2016-11-28T04:13:19.133Z,87.08
2016-11-28T04:14:19.155Z,86.61
2016-11-28T04:15:19.163Z,86.33
2016-11-28T04:16:19.178Z,86.9
2016-11-28T04:17:19.192Z,86.71
2016-11-28T04:18:19.204Z,86.33
2016-11-28T04:19:19.226Z,86.14
2016-11-28T04:20:19.235Z,86.61
2016-11-28T04:21:19.250Z,86.04
2016-11-28T04:22:19.265Z,86.04
2016-11-28T04:23:19.281Z,85.85
2016-11-28T04:24:19.292Z,86.23
2016-11-28T04:25:34.228Z,85.85
2016-11-28T04:26:19.320Z,86.04
2016-11-28T04:28:19.356Z,86.52
2016-11-28T04:29:19.367Z,86.42
2016-11-28T04:30:19.384Z,86.23
2016-11-28T04:31:19.394Z,86.14
2016-11-28T04:32:19.415Z,85.85
2016-11-28T04:33:19.425Z,85.85
2016-11-28T04:34:19.441Z,86.04
2016-11-28T04:35:19.452Z,86.04
2016-11-28T04:36:19.462Z,86.42
2016-11-28T04:37:19.477Z,86.42
2016-11-28T04:38:19.495Z,86.14
2016-11-28T04:40:34.446Z,86.8
2016-11-28T04:43:19.573Z,86.8
2016-11-28T04:44:19.583Z,86.9
2016-11-28T04:45:19.596Z,86.42
2016-11-28T04:46:19.607Z,86.23
2016-11-28T04:47:19.624Z,85.85
2016-11-28T04:48:19.686Z,86.14
2016-11-28T04:49:19.656Z,86.23
2016-11-28T04:50:19.668Z,85.76
2016-11-28T04:51:19.686Z,86.14
2016-11-28T04:52:19.700Z,86.23
2016-11-28T04:53:19.712Z,86.14
2016-11-28T04:54:19.723Z,86.33
2016-11-28T04:55:19.744Z,85.95
2016-11-28T04:56:19.752Z,86.42
2016-11-28T04:57:19.773Z,85.66
2016-11-28T04:59:19.795Z,86.33
2016-11-28T05:00:19.836Z,86.14
2016-11-28T05:01:19.827Z,86.04
2016-11-28T05:02:19.838Z,86.04
2016-11-28T05:03:19.854Z,86.14
2016-11-28T05:04:20.177Z,86.04
2016-11-28T05:05:19.885Z,86.42
2016-11-28T05:06:19.899Z,85.76
2016-11-28T05:07:19.912Z,85.38
2016-11-28T05:08:19.927Z,85.66
2016-11-28T05:09:19.942Z,86.04
2016-11-28T05:10:19.955Z,85.47
2016-11-28T05:11:19.968Z,86.42
2016-11-28T05:12:34.906Z,86.23
2016-11-28T05:13:20.046Z,86.04
2016-11-28T05:14:20.015Z,85.76
2016-11-28T05:15:20.028Z,85.85
2016-11-28T05:16:20.043Z,85.95
2016-11-28T05:17:20.057Z,85.66
2016-11-28T05:18:20.070Z,85.57
2016-11-28T05:19:20.085Z,86.04
2016-11-28T05:20:20.099Z,86.04
2016-11-28T05:21:20.119Z,86.23
2016-11-28T05:22:20.129Z,85.95
2016-11-28T05:23:20.140Z,86.23
2016-11-28T05:24:20.159Z,85.85
2016-11-28T05:25:20.176Z,86.23
2016-11-28T05:27:20.201Z,85.85
2016-11-28T05:28:35.138Z,86.42
2016-11-28T05:29:20.233Z,86.04
2016-11-28T05:31:20.259Z,86.42
2016-11-28T05:32:20.270Z,86.33
2016-11-28T05:33:20.296Z,85.76
2016-11-28T05:34:20.302Z,85.85
2016-11-28T05:35:20.320Z,85.57
2016-11-28T05:36:20.334Z,85.47
2016-11-28T05:37:20.346Z,86.04
2016-11-28T05:38:20.356Z,85.66
2016-11-28T05:39:20.374Z,85.57
2016-11-28T05:40:20.393Z,85.76
2016-11-28T05:41:20.403Z,85.76
2016-11-28T05:42:20.413Z,86.33
2016-11-28T05:43:20.429Z,85.76
2016-11-28T05:44:35.367Z,85.66
2016-11-28T05:45:20.462Z,85.38
2016-11-28T05:46:20.476Z,85.38
2016-11-28T05:47:20.487Z,85.47
2016-11-28T05:48:20.500Z,85.76
2016-11-28T05:49:20.514Z,85.76
2016-11-28T05:50:20.528Z,85.66
2016-11-28T05:51:20.548Z,85.66
2016-11-28T05:52:20.559Z,85.57
2016-11-28T05:53:20.569Z,85.76
2016-11-28T05:54:20.621Z,85.47
2016-11-28T05:55:20.603Z,85.85
2016-11-28T05:56:20.617Z,85.47
2016-11-28T05:57:20.634Z,85.47
2016-11-28T05:59:20.663Z,85.95
2016-11-28T06:00:35.594Z,86.04
2016-11-28T06:01:20.692Z,85.66
2016-11-28T06:02:20.705Z,85.85
2016-11-28T06:03:20.719Z,85.85
2016-11-28T06:04:20.730Z,85.66
2016-11-28T06:05:20.747Z,85.76
2016-11-28T06:06:20.756Z,86.23
2016-11-28T06:07:21.079Z,86.52
2016-11-28T06:08:20.789Z,86.23
2016-11-28T06:09:20.802Z,85.95
2016-11-28T06:10:20.819Z,85.47
2016-11-28T06:11:21.129Z,86.04
2016-11-28T06:12:20.844Z,85.66
2016-11-28T06:13:20.856Z,85.95
2016-11-28T06:15:35.812Z,85.57
2016-11-28T06:17:20.919Z,85.66
2016-11-28T06:18:20.931Z,86.23
2016-11-28T06:19:20.947Z,86.04
2016-11-28T06:20:20.963Z,85.95
2016-11-28T06:21:20.973Z,86.23
2016-11-28T06:22:20.991Z,86.14
2016-11-28T06:23:21.001Z,86.14
2016-11-28T06:24:21.013Z,85.85
2016-11-28T06:25:21.029Z,86.04
2016-11-28T06:26:21.046Z,86.23
2016-11-28T06:27:21.062Z,86.04
2016-11-28T06:28:21.124Z,86.23
2016-11-28T06:29:21.085Z,86.04
2016-11-28T06:30:21.107Z,86.14
2016-11-28T06:31:21.115Z,86.33
2016-11-28T06:32:21.130Z,86.23
2016-11-28T06:33:21.145Z,85.95
2016-11-28T06:34:21.159Z,86.33
2016-11-28T06:35:21.174Z,86.23
2016-11-28T06:36:21.187Z,86.9
2016-11-28T06:37:21.200Z,86.9
2016-11-28T06:38:21.214Z,86.9
2016-11-28T06:39:21.238Z,86.99
2016-11-28T06:40:21.247Z,86.8
2016-11-28T06:41:21.256Z,86.42
2016-11-28T06:42:21.274Z,86.33
2016-11-28T06:43:21.286Z,86.42
2016-11-28T06:44:21.303Z,86.57
2016-11-28T06:45:21.321Z,87.08
2016-11-28T06:46:21.328Z,86.33
2016-11-28T06:47:36.266Z,86.14
2016-11-28T06:48:21.357Z,86.04
2016-11-28T06:49:21.421Z,85.76
2016-11-28T06:50:21.387Z,85.28
2016-11-28T06:51:21.406Z,86.04
2016-11-28T06:52:21.415Z,85.76
2016-11-28T06:53:21.431Z,85.28
2016-11-28T06:54:21.444Z,85.66
2016-11-28T06:55:21.457Z,85.76
2016-11-28T06:56:21.672Z,85.85
2016-11-28T06:57:21.536Z,86.04
2016-11-28T06:58:21.504Z,85.57
2016-11-28T06:59:21.515Z,86.33
2016-11-28T07:00:21.531Z,86.04
2016-11-28T07:01:21.541Z,86.04
2016-11-28T07:02:21.561Z,86.23
2016-11-28T07:03:36.496Z,85.76
2016-11-28T07:04:21.591Z,85.66
2016-11-28T07:05:21.600Z,86.14
2016-11-28T07:06:21.619Z,85.85
2016-11-28T07:07:21.630Z,85.38
2016-11-28T07:08:21.644Z,85.19
2016-11-28T07:09:21.656Z,85.38
2016-11-28T07:10:21.670Z,85.28
2016-11-28T07:11:21.691Z,85.19
2016-11-28T07:12:21.705Z,85.47
2016-11-28T07:13:21.713Z,84.72
2016-11-28T07:14:21.733Z,85.19
2016-11-28T07:15:21.747Z,84.72
2016-11-28T07:16:21.761Z,84.44
2016-11-28T07:18:21.790Z,85.38
2016-11-28T07:19:36.723Z,85.28
2016-11-28T07:20:21.819Z,85
2016-11-28T07:21:21.830Z,85
2016-11-28T07:22:21.895Z,85.1
2016-11-28T07:23:21.858Z,85.28
2016-11-28T07:24:21.877Z,85.28
2016-11-28T07:25:21.890Z,84.25
2016-11-28T07:26:21.903Z,84.63
2016-11-28T07:27:21.917Z,84.81
2016-11-28T07:28:21.934Z,85.28
2016-11-28T07:29:21.945Z,85.28
2016-11-28T07:30:21.958Z,85.1
2016-11-28T07:31:21.978Z,85.19
2016-11-28T07:32:21.994Z,85.19
2016-11-28T07:33:22.002Z,85.38
2016-11-28T07:35:36.956Z,84.81
2016-11-28T07:36:22.050Z,85.76
2016-11-28T07:37:22.066Z,85.19
2016-11-28T07:38:22.379Z,85.1
2016-11-28T07:39:22.092Z,85.1
2016-11-28T07:40:22.104Z,85.19
2016-11-28T07:41:22.116Z,84.91
2016-11-28T07:42:22.132Z,84.72
2016-11-28T07:43:22.146Z,85.38
2016-11-28T07:44:22.169Z,84.81
2016-11-28T07:45:22.177Z,85.1
2016-11-28T07:46:22.193Z,85.47
2016-11-28T07:47:22.211Z,84.81
2016-11-28T07:48:22.225Z,84.72
2016-11-28T07:49:22.234Z,84.72
2016-11-28T07:50:37.173Z,85.47
2016-11-28T07:51:22.267Z,84.63
2016-11-28T07:53:22.298Z,85.66
2016-11-28T07:54:22.313Z,85.1
2016-11-28T07:55:22.328Z,84.67
2016-11-28T07:56:22.338Z,84.63
2016-11-28T07:57:22.355Z,84.67
2016-11-28T07:58:22.371Z,84.39
2016-11-28T07:59:22.382Z,84.67
2016-11-28T08:00:22.395Z,84.48
2016-11-28T08:01:22.411Z,84.86
2016-11-28T08:02:22.425Z,84.1
2016-11-28T08:03:22.445Z,83.91
2016-11-28T08:04:22.459Z,84.1
2016-11-28T08:05:22.472Z,83.82
2016-11-28T08:06:22.490Z,83.34
2016-11-28T08:07:22.507Z,83.82
2016-11-28T08:08:22.556Z,84.01
2016-11-28T08:09:22.537Z,83.82
2016-11-28T08:10:22.549Z,83.82
2016-11-28T08:11:22.561Z,84.67
2016-11-28T08:13:22.595Z,84.53
2016-11-28T08:14:22.605Z,84.67
2016-11-28T08:15:22.620Z,84.39
2016-11-28T08:16:22.637Z,84.67
2016-11-28T08:17:22.680Z,84.77
2016-11-28T08:18:22.666Z,84.67
2016-11-28T08:21:22.710Z,84.91
2016-11-28T08:22:37.647Z,84.67
2016-11-28T08:23:22.774Z,84.48
2016-11-28T08:24:22.758Z,84.58
2016-11-28T08:25:22.771Z,84.58
2016-11-28T08:26:22.786Z,84.29
2016-11-28T08:27:22.804Z,83.91
2016-11-28T08:28:22.816Z,83.06
2016-11-28T08:29:22.829Z,83.25
2016-11-28T08:30:22.845Z,83.53
2016-11-28T08:31:22.860Z,83.15
2016-11-28T08:32:22.878Z,83.53
2016-11-28T08:33:22.891Z,83.63
2016-11-28T08:34:22.904Z,83.06
2016-11-28T08:35:22.918Z,82.4
2016-11-28T08:36:22.933Z,82.5
2016-11-28T08:37:22.949Z,82.59
2016-11-28T08:38:37.889Z,82.68
2016-11-28T08:40:23.000Z,83.06
2016-11-28T08:41:23.014Z,83.06
2016-11-28T08:42:23.030Z,83.25
2016-11-28T08:43:23.039Z,83.72
2016-11-28T08:44:23.064Z,83.25
2016-11-28T08:45:23.072Z,83.34
2016-11-28T08:46:23.086Z,83.25
2016-11-28T08:47:23.101Z,83.44
2016-11-28T08:48:23.115Z,83.63
2016-11-28T08:49:23.143Z,84.1
2016-11-28T08:50:23.149Z,84.67
2016-11-28T08:51:23.163Z,84.58
2016-11-28T08:52:23.495Z,84.2
2016-11-28T08:53:23.196Z,83.82
2016-11-28T08:54:38.131Z,83.91
2016-11-28T08:55:23.225Z,83.34
2016-11-28T08:56:23.242Z,83.91
2016-11-28T08:57:23.255Z,83.15
2016-11-28T08:58:23.276Z,83.34
2016-11-28T08:59:23.282Z,83.63
2016-11-28T09:00:23.302Z,83.25
2016-11-28T09:01:23.319Z,82.87
2016-11-28T09:02:23.331Z,83.34
2016-11-28T09:03:23.345Z,83.25
2016-11-28T09:04:23.361Z,82.68
2016-11-28T09:05:23.376Z,83.06
2016-11-28T09:06:23.391Z,83.63
2016-11-28T09:07:23.410Z,83.25
2016-11-28T09:08:23.424Z,83.34
2016-11-28T09:09:23.435Z,83.53
2016-11-28T09:10:38.376Z,83.25
2016-11-28T09:11:23.471Z,83.44
2016-11-28T09:12:23.483Z,82.68
2016-11-28T09:13:23.498Z,83.44
2016-11-28T09:14:23.514Z,83.25
2016-11-28T09:15:23.529Z,83.44
2016-11-28T09:16:23.543Z,83.63
2016-11-28T09:17:23.559Z,83.25
2016-11-28T09:19:23.589Z,83.44
2016-11-28T09:20:23.608Z,83.34
2016-11-28T09:21:23.622Z,83.25
2016-11-28T09:22:23.641Z,83.15
2016-11-28T09:23:23.655Z,83.25
2016-11-28T09:25:38.607Z,83.34
2016-11-28T09:26:23.701Z,83.34
2016-11-28T09:28:23.730Z,82.68
2016-11-28T09:29:23.747Z,82.68
2016-11-28T09:30:23.761Z,83.15
2016-11-28T09:31:23.771Z,83.25
2016-11-28T09:32:23.789Z,83.44
2016-11-28T09:33:23.807Z,83.34
2016-11-28T09:34:23.818Z,83.63
2016-11-28T09:35:23.839Z,83.34
2016-11-28T09:36:23.853Z,83.53
2016-11-28T09:37:23.870Z,83.76
2016-11-28T09:38:23.884Z,82.72
2016-11-28T09:39:23.898Z,82.91
2016-11-28T09:40:23.918Z,82.91
2016-11-28T09:41:23.928Z,82.97
2016-11-28T09:42:23.944Z,83.2
2016-11-28T09:43:23.958Z,83.29
2016-11-28T09:44:23.977Z,82.91
2016-11-28T09:45:23.990Z,82.72
2016-11-28T09:46:24.011Z,83.39
2016-11-28T09:47:24.025Z,83.58
2016-11-28T09:48:24.038Z,83.1
2016-11-28T09:49:24.055Z,83.29
2016-11-28T09:50:24.127Z,83.29
2016-11-28T09:51:24.088Z,83.67
2016-11-28T09:52:24.106Z,83.67
2016-11-28T09:53:24.118Z,83.15
2016-11-28T09:54:24.131Z,83.44
2016-11-28T09:56:24.216Z,83.29
2016-11-28T09:57:39.100Z,83.39
2016-11-28T09:58:24.193Z,83.95
2016-11-28T09:59:24.212Z,83.2
2016-11-28T10:00:24.223Z,83.29
2016-11-28T10:01:24.247Z,83.1
2016-11-28T10:02:24.259Z,82.82
2016-11-28T10:03:24.273Z,83.1
2016-11-28T10:04:24.289Z,82.72
2016-11-28T10:05:24.305Z,82.63
2016-11-28T10:06:24.319Z,82.63
2016-11-28T10:07:24.333Z,82.53
2016-11-28T10:08:24.348Z,82.53
2016-11-28T10:09:24.369Z,82.82
2016-11-28T10:11:24.396Z,82.82
2016-11-28T10:13:39.352Z,82.91
2016-11-28T10:14:24.466Z,83.1
2016-11-28T10:15:24.460Z,82.25
2016-11-28T10:16:24.478Z,82.06
2016-11-28T10:17:24.495Z,82.44
2016-11-28T10:18:24.505Z,82.53
2016-11-28T10:19:24.522Z,82.25
2016-11-28T10:20:24.539Z,81.77
2016-11-28T10:21:24.554Z,81.59
2016-11-28T10:22:24.572Z,81.87
2016-11-28T10:23:24.587Z,81.77
2016-11-28T10:24:24.603Z,81.77
2016-11-28T10:25:24.619Z,81.87
2016-11-28T10:26:24.633Z,82.15
2016-11-28T10:27:24.651Z,82.15
2016-11-28T10:28:24.663Z,83.01
2016-11-28T10:29:39.603Z,82.25
2016-11-28T10:30:24.699Z,82.63
2016-11-28T10:31:24.716Z,82.44
2016-11-28T10:32:24.733Z,83.01
2016-11-28T10:33:24.747Z,83.1
2016-11-28T10:34:24.758Z,83.1
2016-11-28T10:35:24.777Z,82.63
2016-11-28T10:36:24.788Z,82.72
2016-11-28T10:37:24.807Z,82.34
2016-11-28T10:38:24.822Z,83.01
2016-11-28T10:39:24.837Z,82.34
2016-11-28T10:40:24.857Z,82.34
2016-11-28T10:41:24.870Z,82.39
2016-11-28T10:42:24.884Z,82.29
2016-11-28T10:45:39.855Z,82.67
2016-11-28T10:46:24.949Z,82.39
2016-11-28T10:47:24.998Z,82.29
2016-11-28T10:48:24.983Z,81.92
2016-11-28T10:49:24.998Z,81.53
2016-11-28T10:50:25.015Z,81.92
2016-11-28T10:51:25.047Z,81.25
2016-11-28T10:52:25.046Z,81.53
2016-11-28T10:53:25.063Z,80.49
2016-11-28T10:54:25.081Z,80.68
2016-11-28T10:55:25.094Z,80.96
2016-11-28T10:56:25.110Z,80.58
2016-11-28T10:57:25.124Z,80.58
2016-11-28T10:59:25.155Z,80.49
2016-11-28T11:00:40.096Z,80.96
2016-11-28T11:01:25.189Z,80.58
2016-11-28T11:04:25.244Z,80.68
2016-11-28T11:05:25.251Z,80.96
2016-11-28T11:06:25.268Z,80.87
2016-11-28T11:07:25.286Z,81.15
2016-11-28T11:08:25.302Z,80.96
2016-11-28T11:09:25.316Z,81.15
2016-11-28T11:10:25.334Z,80.96
2016-11-28T11:11:25.352Z,80.87
2016-11-28T11:12:25.366Z,80.68
2016-11-28T11:13:25.379Z,80.11
2016-11-28T11:14:25.394Z,80.77
2016-11-28T11:15:25.417Z,80.49
2016-11-28T11:16:25.436Z,80.68
2016-11-28T11:17:25.449Z,80.02
2016-11-28T11:18:25.463Z,80.21
2016-11-28T11:19:25.476Z,80.3
2016-11-28T11:20:25.496Z,79.77
2016-11-28T11:21:25.511Z,80.15
2016-11-28T11:22:25.531Z,79.96
2016-11-28T11:23:25.550Z,79.21
2016-11-28T11:24:25.559Z,79.3
2016-11-28T11:25:25.584Z,79.77
2016-11-28T11:26:25.595Z,79.49
2016-11-28T11:27:25.611Z,79.02
2016-11-28T11:28:25.628Z,78.35
2016-11-28T11:29:25.645Z,78.54
2016-11-28T11:30:25.661Z,79.11
2016-11-28T11:31:25.675Z,78.73
2016-11-28T11:32:40.616Z,77.59
2016-11-28T11:33:25.709Z,77.97
2016-11-28T11:34:25.723Z,77.5
2016-11-28T11:35:25.742Z,77.22
2016-11-28T11:36:25.762Z,76.93
2016-11-28T11:37:25.776Z,77.22
2016-11-28T11:38:25.795Z,77.31
2016-11-28T11:39:25.808Z,76.84
2016-11-28T11:40:25.822Z,76.65
2016-11-28T11:41:25.840Z,76.84
2016-11-28T11:42:25.856Z,77.31
2016-11-28T11:43:25.880Z,77.22
2016-11-28T11:44:25.892Z,77.12
2016-11-28T11:45:25.906Z,77.31
2016-11-28T11:46:25.924Z,77.31
2016-11-28T11:47:25.939Z,77.31
2016-11-28T11:48:40.882Z,77.31
2016-11-28T11:50:25.991Z,77.4
2016-11-28T11:51:26.006Z,77.59
2016-11-28T11:52:26.029Z,77.22
2016-11-28T11:53:26.038Z,77.22
2016-11-28T11:54:26.057Z,76.93
2016-11-28T11:55:26.075Z,76.55
2016-11-28T11:56:26.089Z,76.84
2016-11-28T11:57:26.112Z,77.31
2016-11-28T11:58:26.124Z,76.93
2016-11-28T11:59:26.144Z,77.4
2016-11-28T12:00:26.157Z,76.74
2016-11-28T12:01:26.172Z,77.22
2016-11-28T12:03:26.211Z,77.03
2016-11-28T12:04:41.146Z,76.36
2016-11-28T12:06:26.264Z,76.08
2016-11-28T12:07:26.277Z,76.84
2016-11-28T12:08:26.339Z,77.5
2016-11-28T12:09:26.306Z,77.22
2016-11-28T12:10:26.323Z,77.12
2016-11-28T12:11:26.343Z,77.22
2016-11-28T12:12:26.361Z,77.4
2016-11-28T12:13:26.378Z,77.97
2016-11-28T12:14:26.400Z,77.59
2016-11-28T12:15:26.407Z,77.59
2016-11-28T12:16:26.423Z,77.88
2016-11-28T12:17:26.446Z,77.69
2016-11-28T12:18:26.456Z,78.16
2016-11-28T12:19:26.479Z,78.92
2016-11-28T12:20:41.416Z,78.92
2016-11-28T12:21:26.509Z,78.92
2016-11-28T12:22:26.524Z,78.45
2016-11-28T12:23:26.544Z,78.83
2016-11-28T12:24:26.559Z,78.83
2016-11-28T12:25:26.572Z,78.64
2016-11-28T12:26:26.592Z,78.83
2016-11-28T12:27:26.608Z,78.16
2016-11-28T12:28:26.629Z,78.16
2016-11-28T12:29:26.642Z,78.07
2016-11-28T12:30:33.392Z,78.16
2016-11-28T12:31:26.679Z,78.07
2016-11-28T12:32:26.741Z,77.97
2016-11-28T12:33:26.710Z,78.16
2016-11-28T12:34:26.722Z,77.88
2016-11-28T12:35:41.664Z,78.16
2016-11-28T12:36:26.757Z,77.78
2016-11-28T12:38:26.793Z,77.69
2016-11-28T12:39:26.814Z,78.07
2016-11-28T12:40:26.830Z,78.64
2016-11-28T12:41:26.842Z,78.92
2016-11-28T12:42:26.861Z,78.64
2016-11-28T12:43:26.877Z,77.78
2016-11-28T12:44:26.890Z,77.97
2016-11-28T12:45:26.909Z,77.97
2016-11-28T12:46:26.928Z,77.88
2016-11-28T12:47:26.944Z,77.5
2016-11-28T12:48:26.986Z,78.16
2016-11-28T12:49:27.027Z,78.07
2016-11-28T12:50:26.995Z,77.78
2016-11-28T12:51:27.010Z,77.97
2016-11-28T12:52:27.024Z,77.59
2016-11-28T12:53:27.042Z,77.4
2016-11-28T12:54:27.061Z,77.31
2016-11-28T12:55:27.071Z,77.5
2016-11-28T12:56:27.089Z,77.4
2016-11-28T12:57:27.111Z,78.16
2016-11-28T12:58:27.126Z,77.78
2016-11-28T12:59:27.148Z,77.59
2016-11-28T13:00:27.159Z,77.4
2016-11-28T13:01:27.175Z,77.59
2016-11-28T13:02:27.198Z,77.4
2016-11-28T13:03:27.206Z,77.5
2016-11-28T13:04:27.225Z,77.5
2016-11-28T13:05:27.242Z,77.97
2016-11-28T13:06:27.262Z,78.07
2016-11-28T13:07:42.198Z,78.07
2016-11-28T13:09:27.306Z,77.88
2016-11-28T13:10:27.325Z,77.97
2016-11-28T13:11:27.340Z,77.78
2016-11-28T13:12:27.356Z,78.07
2016-11-28T13:13:27.373Z,77.59
2016-11-28T13:14:27.391Z,77.78
2016-11-28T13:15:27.408Z,77.4
2016-11-28T13:16:27.423Z,77.69
2016-11-28T13:17:27.442Z,77.4
2016-11-28T13:18:27.454Z,77.31
2016-11-28T13:19:27.474Z,77.03
2016-11-28T13:20:42.465Z,76.84
2016-11-28T13:21:27.504Z,77.12
2016-11-28T13:22:27.527Z,76.93
2016-11-28T13:23:42.462Z,77.22
2016-11-28T13:24:27.560Z,76.74
2016-11-28T13:25:27.572Z,76.74
2016-11-28T13:26:27.596Z,77.31
2016-11-28T13:27:27.606Z,77.12
2016-11-28T13:28:27.624Z,77.31
2016-11-28T13:29:27.638Z,76.93
2016-11-28T13:30:27.655Z,77.4
2016-11-28T13:31:27.675Z,77.22
2016-11-28T13:32:27.691Z,77.59
2016-11-28T13:33:27.708Z,77.4
2016-11-28T13:34:27.724Z,77.5
2016-11-28T13:35:28.043Z,77.4
2016-11-28T13:36:27.762Z,77.31
2016-11-28T13:37:27.773Z,77.12
2016-11-28T13:38:27.793Z,77.03
2016-11-28T13:39:42.730Z,76.84
2016-11-28T13:40:27.879Z,76.65
2016-11-28T13:41:27.843Z,76.08
2016-11-28T13:42:27.861Z,76.08